Time;durP1;ratioP1;P1;durP2;ratioP2;P2;SDS_P1;SDS_P2;PMS_P1;PMS_P2;Temp;Humidity;BMP_temperature;BMP_pressure;BME280_temperature;BME280_humidity;BME280_pressure;Samples;Min_cycle;Max_cycle;Signal;HPM_P1;HPM_P2
2022/03/26 00:00:53;;;;;;;;;;;5.80;99.90;;;;;;4957567;28;19933;-76
2022/03/26 00:03:18;;;;;;;;;;;5.80;99.90;;;;;;4957276;28;19926;-74
2022/03/26 00:05:53;;;;;;;;;;;5.80;99.90;;;;;;4979576;28;19922;-76
2022/03/26 00:08:18;;;;;;;;;;;5.80;99.90;;;;;;4949771;28;19922;-75
2022/03/26 00:10:50;;;;;;;;;;;5.80;99.90;;;;;;4981811;28;19981;-77
2022/03/26 00:13:17;;;;;;;;;;;5.80;99.90;;;;;;4956431;28;19954;-77
2022/03/26 00:15:42;;;;;;;;;;;5.80;99.90;;;;;;4956357;28;19937;-76
2022/03/26 00:18:15;;;;;;;;;;;5.80;99.90;;;;;;4956342;28;19922;-76
2022/03/26 00:20:45;;;;;;;;;;;5.80;99.90;;;;;;4974073;28;19926;-76
2022/03/26 00:23:14;;;;;;;;;;;5.80;99.90;;;;;;4956324;28;20381;-76
2022/03/26 00:25:48;;;;;;;;;;;5.80;99.90;;;;;;4973955;28;19922;-76
2022/03/26 00:28:13;;;;;;;;;;;5.70;99.90;;;;;;4940169;28;19930;-76
2022/03/26 00:30:39;;;;;;;;;;;5.70;99.90;;;;;;4956135;28;19926;-76
2022/03/26 00:33:10;;;;;;;;;;;5.70;99.90;;;;;;4972935;28;19929;-76
2022/03/26 00:35:36;;;;;;;;;;;5.70;99.90;;;;;;4940105;28;19922;-76
2022/03/26 00:38:11;;;;;;;;;;;5.60;99.90;;;;;;4956205;28;19922;-76
2022/03/26 00:40:38;;;;;;;;;;;5.60;99.90;;;;;;4956483;28;20013;-76
2022/03/26 00:43:08;;;;;;;;;;;5.60;99.90;;;;;;4956875;28;20324;-75
2022/03/26 00:45:39;;;;;;;;;;;5.60;99.90;;;;;;4956164;28;19926;-75
2022/03/26 00:48:05;;;;;;;;;;;5.50;99.90;;;;;;4940079;28;20340;-77
2022/03/26 00:50:30;;;;;;;;;;;5.50;99.90;;;;;;4973486;28;19922;-77
2022/03/26 00:53:00;;;;;;;;;;;5.50;99.90;;;;;;4971569;28;19945;-76
2022/03/26 00:55:34;;;;;;;;;;;5.50;99.90;;;;;;4943983;28;20297;-75
2022/03/26 00:58:02;;;;;;;;;;;5.50;99.90;;;;;;4960176;28;19933;-76
2022/03/26 01:00:28;;;;;;;;;;;5.40;99.90;;;;;;4960197;28;19922;-77
2022/03/26 01:02:56;;;;;;;;;;;5.40;99.90;;;;;;4976155;28;20370;-75
2022/03/26 01:05:34;;;;;;;;;;;5.40;99.90;;;;;;4976976;28;20048;-75
2022/03/26 01:08:02;;;;;;;;;;;5.40;99.90;;;;;;4970812;28;19972;-77
2022/03/26 01:10:32;;;;;;;;;;;5.40;99.90;;;;;;4985403;28;20293;-77
2022/03/26 01:13:07;;;;;;;;;;;5.40;99.90;;;;;;4981192;28;20005;-74
2022/03/26 01:15:36;;;;;;;;;;;5.30;99.90;;;;;;4984174;28;19922;-75
2022/03/26 01:18:02;;;;;;;;;;;5.20;99.90;;;;;;5003243;28;19929;-75
2022/03/26 01:20:27;;;;;;;;;;;5.20;99.90;;;;;;4964745;28;19922;-76
2022/03/26 01:22:53;;;;;;;;;;;5.10;99.90;;;;;;4976280;28;20404;-76
2022/03/26 01:25:19;;;;;;;;;;;5.10;99.90;;;;;;4959534;28;20004;-76
2022/03/26 01:27:48;;;;;;;;;;;5.10;99.90;;;;;;4974057;28;20436;-75
2022/03/26 01:30:14;;;;;;;;;;;5.10;99.90;;;;;;4976713;28;19926;-76
2022/03/26 01:32:40;;;;;;;;;;;5.00;99.90;;;;;;4959292;28;19922;-76
2022/03/26 01:35:07;;;;;;;;;;;5.10;99.90;;;;;;4959412;28;20384;-76
2022/03/26 01:37:32;;;;;;;;;;;5.10;99.90;;;;;;4959154;28;19977;-75
2022/03/26 01:39:58;;;;;;;;;;;5.10;99.90;;;;;;4959174;28;19968;-76
2022/03/26 01:42:23;;;;;;;;;;;5.10;99.90;;;;;;4959529;28;20393;-76
2022/03/26 01:44:56;;;;;;;;;;;5.10;99.90;;;;;;4974986;28;20004;-76
2022/03/26 01:47:25;;;;;;;;;;;5.00;99.90;;;;;;4974579;28;19922;-76
2022/03/26 01:49:51;;;;;;;;;;;5.00;99.90;;;;;;4976831;28;19929;-75
2022/03/26 01:52:17;;;;;;;;;;;5.00;99.90;;;;;;4976299;28;19926;-76
2022/03/26 01:54:43;;;;;;;;;;;4.90;99.90;;;;;;4975455;28;19979;-75
2022/03/26 01:57:12;;;;;;;;;;;5.00;99.90;;;;;;4942577;28;19980;-76
2022/03/26 01:59:38;;;;;;;;;;;5.00;99.90;;;;;;4958761;28;20013;-76
2022/03/26 02:02:05;;;;;;;;;;;5.00;99.90;;;;;;4958704;28;19926;-76
2022/03/26 02:04:36;;;;;;;;;;;5.00;99.90;;;;;;4958385;28;19926;-75
2022/03/26 02:07:02;;;;;;;;;;;5.00;99.90;;;;;;4974914;28;19929;-75
2022/03/26 02:09:35;;;;;;;;;;;5.00;99.90;;;;;;4958821;28;20366;-75
2022/03/26 02:12:04;;;;;;;;;;;5.00;99.90;;;;;;4962387;28;19922;-75
2022/03/26 02:14:32;;;;;;;;;;;5.00;99.90;;;;;;4964551;28;19977;-75
2022/03/26 02:16:58;;;;;;;;;;;5.00;99.90;;;;;;4967998;28;19989;-74
2022/03/26 02:19:25;;;;;;;;;;;5.00;99.90;;;;;;4984382;28;20016;-75
2022/03/26 02:21:50;;;;;;;;;;;4.90;99.90;;;;;;4960107;28;19921;-76
2022/03/26 02:24:17;;;;;;;;;;;4.90;99.90;;;;;;4973764;28;19922;-76
2022/03/26 02:26:46;;;;;;;;;;;4.90;99.90;;;;;;4958795;28;19926;-75
2022/03/26 02:29:12;;;;;;;;;;;4.90;99.90;;;;;;4974562;28;19977;-75
2022/03/26 02:31:41;;;;;;;;;;;4.90;99.90;;;;;;4975492;28;19921;-75
2022/03/26 02:34:07;;;;;;;;;;;4.90;99.90;;;;;;4974432;28;19929;-75
2022/03/26 02:36:33;;;;;;;;;;;4.90;99.90;;;;;;4958006;28;20024;-75
2022/03/26 02:38:59;;;;;;;;;;;5.10;99.90;;;;;;4958157;28;19973;-75
2022/03/26 02:41:27;;;;;;;;;;;5.10;99.90;;;;;;4957880;28;20325;-75
2022/03/26 02:43:53;;;;;;;;;;;5.20;99.90;;;;;;4958059;28;19921;-76
2022/03/26 02:46:20;;;;;;;;;;;5.20;99.90;;;;;;4957955;28;19933;-75
2022/03/26 02:49:05;;;;;;;;;;;5.30;99.90;;;;;;4975452;28;19969;-76
2022/03/26 02:51:30;;;;;;;;;;;5.30;99.90;;;;;;4974088;28;19922;-76
2022/03/26 02:54:00;;;;;;;;;;;5.20;99.90;;;;;;4974057;28;20461;-76
2022/03/26 02:56:26;;;;;;;;;;;5.20;99.90;;;;;;4973268;28;19970;-75
2022/03/26 02:58:51;;;;;;;;;;;5.20;99.90;;;;;;4958264;28;19980;-76
2022/03/26 03:01:20;;;;;;;;;;;5.10;99.90;;;;;;4957985;28;19922;-75
2022/03/26 03:03:50;;;;;;;;;;;5.20;99.90;;;;;;4957767;28;19944;-75
2022/03/26 03:06:17;;;;;;;;;;;5.30;99.90;;;;;;4957880;28;19941;-76
2022/03/26 03:08:43;;;;;;;;;;;5.30;99.90;;;;;;4957582;28;19941;-76
2022/03/26 03:11:09;;;;;;;;;;;5.30;99.90;;;;;;4957706;28;19926;-76
2022/03/26 03:13:39;;;;;;;;;;;5.20;99.90;;;;;;4941072;28;20278;-75
2022/03/26 03:16:13;;;;;;;;;;;5.20;99.90;;;;;;4974119;28;19922;-75
2022/03/26 03:18:38;;;;;;;;;;;5.20;99.90;;;;;;4975170;28;19945;-75
2022/03/26 03:21:04;;;;;;;;;;;5.10;99.90;;;;;;4957338;28;20274;-76
2022/03/26 03:23:36;;;;;;;;;;;5.10;99.90;;;;;;4956865;28;19980;-75
2022/03/26 03:26:02;;;;;;;;;;;5.00;99.90;;;;;;4941411;28;19922;-75
2022/03/26 03:28:28;;;;;;;;;;;5.00;99.90;;;;;;4957849;28;19922;-76
2022/03/26 03:30:53;;;;;;;;;;;4.90;99.90;;;;;;4959738;28;20288;-75
2022/03/26 03:33:19;;;;;;;;;;;4.80;99.90;;;;;;4949576;28;20379;-77
2022/03/26 03:35:49;;;;;;;;;;;4.70;99.90;;;;;;4968308;28;19985;-75
2022/03/26 03:38:16;;;;;;;;;;;4.70;99.90;;;;;;4946107;28;19926;-75
2022/03/26 03:40:46;;;;;;;;;;;4.60;99.90;;;;;;4974508;28;20385;-75
2022/03/26 03:43:17;;;;;;;;;;;4.60;99.90;;;;;;4956987;28;19921;-75
2022/03/26 03:45:43;;;;;;;;;;;4.50;99.90;;;;;;4956990;28;20292;-75
2022/03/26 03:48:09;;;;;;;;;;;4.70;99.90;;;;;;4956917;28;19989;-76
2022/03/26 03:50:35;;;;;;;;;;;4.70;99.90;;;;;;4940832;28;19922;-75
2022/03/26 03:53:00;;;;;;;;;;;4.70;99.90;;;;;;4955377;28;19922;-76
2022/03/26 03:55:28;;;;;;;;;;;4.80;99.90;;;;;;4970063;28;19926;-75
2022/03/26 03:57:54;;;;;;;;;;;4.70;99.90;;;;;;4956876;28;19922;-75
2022/03/26 04:00:20;;;;;;;;;;;4.90;99.90;;;;;;4956523;28;19933;-75
2022/03/26 04:02:46;;;;;;;;;;;4.90;99.90;;;;;;4956988;28;19980;-76
2022/03/26 04:05:13;;;;;;;;;;;4.90;99.90;;;;;;4956742;28;20094;-76
2022/03/26 04:07:44;;;;;;;;;;;4.90;99.90;;;;;;4956635;28;19929;-76
2022/03/26 04:10:11;;;;;;;;;;;5.00;99.90;;;;;;4972881;28;20009;-75
2022/03/26 04:12:38;;;;;;;;;;;5.00;99.90;;;;;;4956326;28;20048;-76
2022/03/26 04:15:07;;;;;;;;;;;5.00;99.90;;;;;;4956953;28;19929;-76
2022/03/26 04:17:35;;;;;;;;;;;5.00;99.90;;;;;;4956254;28;19930;-76
2022/03/26 04:20:02;;;;;;;;;;;5.10;99.90;;;;;;4940410;28;19922;-76
2022/03/26 04:22:32;;;;;;;;;;;5.10;99.90;;;;;;4972592;28;19929;-76
2022/03/26 04:25:01;;;;;;;;;;;5.00;99.90;;;;;;4940332;28;19926;-74
2022/03/26 04:27:27;;;;;;;;;;;4.90;99.90;;;;;;4972285;28;19929;-74
2022/03/26 04:29:53;;;;;;;;;;;4.80;99.90;;;;;;4972391;28;19926;-75
2022/03/26 04:32:21;;;;;;;;;;;4.70;99.90;;;;;;4973035;28;20027;-75
2022/03/26 04:34:51;;;;;;;;;;;4.70;99.90;;;;;;4956132;28;19981;-75
2022/03/26 04:37:17;;;;;;;;;;;4.60;99.90;;;;;;4956019;28;19922;-75
2022/03/26 04:39:43;;;;;;;;;;;4.60;99.90;;;;;;4940714;28;19926;-75
2022/03/26 04:42:11;;;;;;;;;;;4.60;99.90;;;;;;4957036;28;19929;-75
2022/03/26 04:44:37;;;;;;;;;;;4.50;99.90;;;;;;4973331;28;19922;-76
2022/03/26 04:47:16;;;;;;;;;;;4.50;99.90;;;;;;4956036;28;20396;-75
2022/03/26 04:49:48;;;;;;;;;;;4.40;99.90;;;;;;4957649;28;20012;-76
2022/03/26 04:52:18;;;;;;;;;;;4.30;99.90;;;;;;4961104;28;19929;-75
2022/03/26 04:54:48;;;;;;;;;;;4.30;99.90;;;;;;4963392;28;19997;-76
2022/03/26 04:57:15;;;;;;;;;;;4.20;99.90;;;;;;4949990;28;20301;-76
2022/03/26 04:59:41;;;;;;;;;;;4.20;99.90;;;;;;4972988;28;19984;-76
2022/03/26 05:02:07;;;;;;;;;;;4.10;99.90;;;;;;4940103;28;20382;-75
2022/03/26 05:04:37;;;;;;;;;;;4.00;99.90;;;;;;4955749;28;19922;-76
2022/03/26 05:07:45;;;;;;;;;;;4.00;99.90;;;;;;4940214;28;19981;-76
2022/03/26 05:09:48;;;;;;;;;;;4.00;99.90;;;;;;4956235;28;20008;-76
2022/03/26 05:12:14;;;;;;;;;;;4.00;99.90;;;;;;4939863;28;20012;-75
2022/03/26 05:14:40;;;;;;;;;;;4.00;99.90;;;;;;4939424;28;19930;-75
2022/03/26 05:17:05;;;;;;;;;;;3.90;99.90;;;;;;4973461;28;19922;-75
2022/03/26 05:19:31;;;;;;;;;;;3.90;99.90;;;;;;4955786;28;19922;-75
2022/03/26 05:21:57;;;;;;;;;;;3.90;99.90;;;;;;4955865;28;20017;-75
2022/03/26 05:24:23;;;;;;;;;;;3.90;99.90;;;;;;4939738;28;19929;-75
2022/03/26 05:26:48;;;;;;;;;;;4.00;99.90;;;;;;4956025;28;19929;-75
2022/03/26 05:29:14;;;;;;;;;;;4.00;99.90;;;;;;4955724;28;20289;-75
2022/03/26 05:31:39;;;;;;;;;;;4.00;99.90;;;;;;4973288;28;19976;-75
2022/03/26 05:34:05;;;;;;;;;;;4.00;99.90;;;;;;4956290;28;20325;-75
2022/03/26 05:36:31;;;;;;;;;;;4.00;99.90;;;;;;4955791;28;20358;-75
2022/03/26 05:38:57;;;;;;;;;;;4.00;99.90;;;;;;4955917;28;19945;-75
2022/03/26 05:41:24;;;;;;;;;;;4.00;99.90;;;;;;4959024;28;19971;-75
2022/03/26 05:43:50;;;;;;;;;;;3.90;99.90;;;;;;4943187;28;20024;-76
2022/03/26 05:46:19;;;;;;;;;;;3.90;99.90;;;;;;4975197;28;19945;-75
2022/03/26 05:48:45;;;;;;;;;;;4.00;99.90;;;;;;4927298;28;19933;-75
2022/03/26 05:51:11;;;;;;;;;;;4.00;99.90;;;;;;4975682;28;19922;-75
2022/03/26 05:53:40;;;;;;;;;;;4.10;99.90;;;;;;4927189;28;20369;-76
2022/03/26 05:56:06;;;;;;;;;;;4.20;99.90;;;;;;4943090;28;19969;-75
2022/03/26 05:58:32;;;;;;;;;;;4.40;99.90;;;;;;4958653;28;20027;-75
2022/03/26 06:00:58;;;;;;;;;;;4.70;99.90;;;;;;4974723;28;19986;-75
2022/03/26 06:03:23;;;;;;;;;;;4.90;99.90;;;;;;4958624;28;20016;-75
2022/03/26 06:05:49;;;;;;;;;;;5.10;99.90;;;;;;4974423;28;20064;-75
2022/03/26 06:08:15;;;;;;;;;;;5.20;99.90;;;;;;4974185;28;19961;-75
2022/03/26 06:10:41;;;;;;;;;;;5.30;99.90;;;;;;4974636;28;20405;-74
2022/03/26 06:13:09;;;;;;;;;;;5.40;99.90;;;;;;4976239;28;19926;-76
2022/03/26 06:15:36;;;;;;;;;;;5.50;99.90;;;;;;4990601;28;20381;-75
2022/03/26 06:18:02;;;;;;;;;;;5.60;99.90;;;;;;4991544;28;20013;-75
2022/03/26 06:20:29;;;;;;;;;;;5.70;99.90;;;;;;4993401;28;19987;-75
2022/03/26 06:22:55;;;;;;;;;;;5.70;99.90;;;;;;4962986;28;19926;-75
2022/03/26 06:25:21;;;;;;;;;;;5.80;99.90;;;;;;4960716;28;20449;-75
2022/03/26 06:27:47;;;;;;;;;;;6.00;99.90;;;;;;4974371;28;19993;-75
2022/03/26 06:30:13;;;;;;;;;;;6.20;99.90;;;;;;4941702;28;19925;-75
2022/03/26 06:32:39;;;;;;;;;;;6.40;99.90;;;;;;4974239;28;19933;-75
2022/03/26 06:35:06;;;;;;;;;;;6.60;99.90;;;;;;4958520;28;19926;-75
2022/03/26 06:37:35;;;;;;;;;;;6.80;99.90;;;;;;4973368;28;20118;-76
2022/03/26 06:40:01;;;;;;;;;;;6.90;99.90;;;;;;4957887;28;19977;-75
2022/03/26 06:42:27;;;;;;;;;;;7.10;99.90;;;;;;4918960;29;19923;-74
2022/03/26 06:44:59;;;;;;;;;;;7.20;99.90;;;;;;4919057;29;19980;-75
2022/03/26 06:47:27;;;;;;;;;;;7.40;99.90;;;;;;4902959;29;19977;-75
2022/03/26 06:49:56;;;;;;;;;;;7.50;99.90;;;;;;4934623;29;19923;-75
2022/03/26 06:52:23;;;;;;;;;;;7.70;99.90;;;;;;4949433;28;19922;-75
2022/03/26 06:54:49;;;;;;;;;;;7.90;99.90;;;;;;4934617;29;20374;-76
2022/03/26 06:57:15;;;;;;;;;;;8.00;99.90;;;;;;4918550;29;19973;-76
2022/03/26 06:59:41;;;;;;;;;;;8.10;99.90;;;;;;4918243;29;20029;-75
2022/03/26 07:02:09;;;;;;;;;;;8.30;99.90;;;;;;4934153;29;19974;-75
2022/03/26 07:04:35;;;;;;;;;;;8.50;99.90;;;;;;4915151;29;20335;-75
2022/03/26 07:07:05;;;;;;;;;;;8.60;99.90;;;;;;4930730;29;20342;-76
2022/03/26 07:09:31;;;;;;;;;;;8.70;99.90;;;;;;4915281;29;19962;-76
2022/03/26 07:11:57;;;;;;;;;;;8.90;99.90;;;;;;4899403;29;20425;-77
2022/03/26 07:14:23;;;;;;;;;;;9.00;99.90;;;;;;4936237;29;20338;-75
2022/03/26 07:16:48;;;;;;;;;;;9.10;99.90;;;;;;4938258;29;20326;-76
2022/03/26 07:19:14;;;;;;;;;;;9.20;99.90;;;;;;4938578;29;19926;-76
2022/03/26 07:21:40;;;;;;;;;;;9.30;99.90;;;;;;4938421;29;19922;-76
2022/03/26 07:24:06;;;;;;;;;;;9.40;99.90;;;;;;4938477;29;19926;-76
2022/03/26 07:26:32;;;;;;;;;;;9.50;99.90;;;;;;4923084;29;20386;-76
2022/03/26 07:28:58;;;;;;;;;;;9.60;99.90;;;;;;4938737;29;19929;-76
2022/03/26 07:31:23;;;;;;;;;;;9.70;99.90;;;;;;4939345;29;20463;-77
2022/03/26 07:33:49;;;;;;;;;;;9.80;99.90;;;;;;4939839;29;19927;-77
2022/03/26 07:36:25;;;;;;;;;;;9.90;99.90;;;;;;4940741;28;20301;-76
2022/03/26 07:38:55;;;;;;;;;;;10.00;99.90;;;;;;4939508;29;19927;-76
2022/03/26 07:41:37;;;;;;;;;;;10.10;99.90;;;;;;4938254;29;20444;-75
2022/03/26 07:44:06;;;;;;;;;;;10.20;99.90;;;;;;4937774;29;19958;-75
2022/03/26 07:46:31;;;;;;;;;;;10.30;99.90;;;;;;4937650;29;19973;-76
2022/03/26 07:48:57;;;;;;;;;;;10.40;99.90;;;;;;4921852;29;19926;-76
2022/03/26 07:51:25;;;;;;;;;;;10.50;99.90;;;;;;4937661;29;19922;-76
2022/03/26 07:53:54;;;;;;;;;;;10.60;99.90;;;;;;4953619;28;19922;-76
2022/03/26 07:56:21;;;;;;;;;;;10.80;99.90;;;;;;4970065;28;20410;-76
2022/03/26 07:58:49;;;;;;;;;;;10.80;99.90;;;;;;4936679;29;19922;-76
2022/03/26 08:01:15;;;;;;;;;;;10.90;99.90;;;;;;4946755;28;20409;-76
2022/03/26 08:03:40;;;;;;;;;;;11.00;99.90;;;;;;4988463;28;20024;-76
2022/03/26 08:06:06;;;;;;;;;;;11.10;99.90;;;;;;4956565;28;19944;-75
2022/03/26 08:08:36;;;;;;;;;;;11.20;99.90;;;;;;4956752;28;20527;-75
2022/03/26 08:11:02;;;;;;;;;;;11.40;99.90;;;;;;4972262;28;19922;-75
2022/03/26 08:13:28;;;;;;;;;;;11.50;99.90;;;;;;4956437;28;20045;-76
2022/03/26 08:15:53;;;;;;;;;;;11.50;99.90;;;;;;4956173;28;20009;-75
2022/03/26 08:18:23;;;;;;;;;;;11.60;99.90;;;;;;4956058;28;19928;-75
2022/03/26 08:20:49;;;;;;;;;;;11.70;99.90;;;;;;4973977;28;20002;-75
2022/03/26 08:23:15;;;;;;;;;;;11.70;99.90;;;;;;4940419;28;19918;-75
2022/03/26 08:28:29;;;;;;;;;;;11.90;99.90;;;;;;4988283;28;19922;-75
2022/03/26 08:30:54;;;;;;;;;;;11.90;99.90;;;;;;4988085;28;20027;-77
2022/03/26 08:33:25;;;;;;;;;;;12.10;99.90;;;;;;4973605;28;19929;-76
2022/03/26 08:35:51;;;;;;;;;;;12.20;99.90;;;;;;4972148;28;19922;-77
2022/03/26 08:38:26;;;;;;;;;;;12.20;99.90;;;;;;4972890;28;19929;-76
2022/03/26 08:40:52;;;;;;;;;;;12.30;99.90;;;;;;4956789;28;19922;-78
2022/03/26 08:43:18;;;;;;;;;;;12.40;99.90;;;;;;4973747;28;20350;-76
2022/03/26 08:45:45;;;;;;;;;;;12.50;99.90;;;;;;4988401;28;19969;-76
2022/03/26 08:48:11;;;;;;;;;;;12.50;99.90;;;;;;4956465;28;19944;-77
2022/03/26 08:50:37;;;;;;;;;;;12.60;99.90;;;;;;4956782;28;19926;-77
2022/03/26 08:53:05;;;;;;;;;;;12.80;99.90;;;;;;4957013;28;19997;-77
2022/03/26 08:55:31;;;;;;;;;;;13.00;99.90;;;;;;4952740;28;19922;-77
2022/03/26 08:57:57;;;;;;;;;;;13.10;99.90;;;;;;4954939;29;19993;-77
2022/03/26 09:00:22;;;;;;;;;;;13.10;99.90;;;;;;4938255;29;19931;-77
2022/03/26 09:02:51;;;;;;;;;;;13.10;99.90;;;;;;4953727;29;20026;-77
2022/03/26 09:05:21;;;;;;;;;;;13.10;99.90;;;;;;4958425;28;20408;-76
2022/03/26 09:07:48;;;;;;;;;;;13.30;99.90;;;;;;4958925;29;19922;-78
2022/03/26 09:10:16;;;;;;;;;;;13.40;99.90;;;;;;4958564;28;19922;-77
2022/03/26 09:12:42;;;;;;;;;;;13.50;99.90;;;;;;4953337;29;19922;-77
2022/03/26 09:15:08;;;;;;;;;;;13.60;99.90;;;;;;4938368;29;20073;-76
2022/03/26 09:17:34;;;;;;;;;;;13.70;99.90;;;;;;4956795;29;19986;-77
2022/03/26 09:20:01;;;;;;;;;;;13.70;99.90;;;;;;4958099;28;19927;-77
2022/03/26 09:22:27;;;;;;;;;;;14.00;99.90;;;;;;4941237;29;19963;-77
2022/03/26 09:24:52;;;;;;;;;;;14.10;99.90;;;;;;4956457;29;19931;-75
2022/03/26 09:27:18;;;;;;;;;;;14.20;99.90;;;;;;4956344;29;19970;-76
2022/03/26 09:29:45;;;;;;;;;;;14.30;99.90;;;;;;4956552;29;19955;-77
2022/03/26 09:32:11;;;;;;;;;;;14.50;99.90;;;;;;4956347;29;19922;-77
2022/03/26 09:34:39;;;;;;;;;;;14.80;99.90;;;;;;4956512;29;19981;-78
2022/03/26 09:37:05;;;;;;;;;;;14.90;99.90;;;;;;4956494;29;19922;-77
2022/03/26 09:39:31;;;;;;;;;;;15.00;99.90;;;;;;4957679;28;19923;-77
2022/03/26 09:41:57;;;;;;;;;;;15.00;99.90;;;;;;4956075;29;19926;-77
2022/03/26 09:44:23;;;;;;;;;;;15.30;99.90;;;;;;4940031;29;20381;-77
2022/03/26 09:46:49;;;;;;;;;;;15.40;99.90;;;;;;4940022;29;19926;-77
2022/03/26 09:49:15;;;;;;;;;;;15.40;99.90;;;;;;4957487;28;19934;-77
2022/03/26 09:51:40;;;;;;;;;;;15.50;99.90;;;;;;4940201;29;20005;-78
2022/03/26 09:54:07;;;;;;;;;;;15.40;99.90;;;;;;4956543;28;19922;-77
2022/03/26 09:56:34;;;;;;;;;;;15.60;99.90;;;;;;4956338;29;19984;-77
2022/03/26 09:59:00;;;;;;;;;;;15.70;99.90;;;;;;4956321;29;19926;-78
2022/03/26 10:01:26;;;;;;;;;;;15.80;99.90;;;;;;4940135;29;19924;-77
2022/03/26 10:04:12;;;;;;;;;;;15.80;99.90;;;;;;4955943;29;19937;-77
2022/03/26 10:06:45;;;;;;;;;;;16.10;99.90;;;;;;4955799;29;19922;-77
2022/03/26 10:09:11;;;;;;;;;;;16.30;99.90;;;;;;4940130;29;20341;-78
2022/03/26 10:11:36;;;;;;;;;;;16.50;99.90;;;;;;4955743;29;19923;-77
2022/03/26 10:14:02;;;;;;;;;;;16.60;99.30;;;;;;4956732;28;19930;-78
2022/03/26 10:16:28;;;;;;;;;;;16.50;99.90;;;;;;4955819;29;19930;-78
2022/03/26 10:18:57;;;;;;;;;;;16.70;99.90;;;;;;4955684;29;19968;-78
2022/03/26 10:21:23;;;;;;;;;;;16.70;99.10;;;;;;4939056;29;19930;-78
2022/03/26 10:23:52;;;;;;;;;;;16.80;99.60;;;;;;4940452;29;20017;-78
2022/03/26 10:26:25;;;;;;;;;;;16.80;98.40;;;;;;4940482;29;19922;-79
2022/03/26 10:28:53;;;;;;;;;;;17.10;99.20;;;;;;4972723;28;19977;-78
2022/03/26 10:34:15;;;;;;;;;;;17.60;99.20;;;;;;4955693;29;19985;-77
2022/03/26 10:37:01;;;;;;;;;;;17.70;98.90;;;;;;4939999;29;20013;-78
2022/03/26 10:39:28;;;;;;;;;;;17.90;98.20;;;;;;4956269;29;19947;-77
2022/03/26 10:41:54;;;;;;;;;;;18.00;97.50;;;;;;4957732;29;19922;-78
2022/03/26 10:44:28;;;;;;;;;;;18.20;97.50;;;;;;4939906;29;20449;-76
2022/03/26 10:46:57;;;;;;;;;;;17.80;96.70;;;;;;4957051;29;19927;-78
2022/03/26 10:49:29;;;;;;;;;;;18.00;97.30;;;;;;4940036;29;19926;-77
2022/03/26 10:52:17;;;;;;;;;;;18.10;96.20;;;;;;4935820;29;19966;-78
2022/03/26 10:54:43;;;;;;;;;;;18.20;97.50;;;;;;4934969;29;20017;-79
2022/03/26 10:57:13;;;;;;;;;;;18.50;96.20;;;;;;4945585;29;19946;-81
2022/03/26 10:59:43;;;;;;;;;;;18.70;94.90;;;;;;4964851;29;19931;-79
2022/03/26 11:02:08;;;;;;;;;;;18.70;95.30;;;;;;4931147;29;19923;-78
2022/03/26 11:04:34;;;;;;;;;;;19.00;95.40;;;;;;4930642;29;19933;-78
2022/03/26 11:07:01;;;;;;;;;;;18.90;93.70;;;;;;4928382;29;20009;-80
2022/03/26 11:09:29;;;;;;;;;;;18.90;93.20;;;;;;4914450;29;19929;-79
2022/03/26 11:11:55;;;;;;;;;;;18.80;94.40;;;;;;4925077;29;20055;-78
2022/03/26 11:14:25;;;;;;;;;;;19.10;94.20;;;;;;4911585;29;19923;-78
2022/03/26 11:17:05;;;;;;;;;;;19.20;93.50;;;;;;4927655;29;19926;-78
2022/03/26 11:19:30;;;;;;;;;;;19.20;93.20;;;;;;4920798;29;19923;-78
2022/03/26 11:22:07;;;;;;;;;;;19.80;93.60;;;;;;4920889;29;19929;-78
2022/03/26 11:24:42;;;;;;;;;;;20.00;92.40;;;;;;4919328;29;20599;-79
2022/03/26 11:27:23;;;;;;;;;;;20.20;90.60;;;;;;4918571;29;20402;-77
2022/03/26 11:29:56;;;;;;;;;;;20.50;91.70;;;;;;4920554;29;19930;-78
2022/03/26 11:32:43;;;;;;;;;;;20.70;90.40;;;;;;4919015;29;19922;-77
2022/03/26 11:35:16;;;;;;;;;;;20.60;89.00;;;;;;4920948;29;19923;-78
2022/03/26 11:37:51;;;;;;;;;;;20.20;89.90;;;;;;4918733;29;19923;-78
2022/03/26 11:40:35;;;;;;;;;;;20.60;90.20;;;;;;4935640;29;19946;-78
2022/03/26 11:43:10;;;;;;;;;;;20.60;85.10;;;;;;4920154;29;19923;-79
2022/03/26 11:51:31;;;;;;;;;;;21.10;84.10;;;;;;4919081;29;20369;-79
2022/03/26 11:54:07;;;;;;;;;;;21.00;80.60;;;;;;4919520;29;19923;-78
2022/03/26 11:56:38;;;;;;;;;;;21.10;79.00;;;;;;4937826;29;19977;-79
2022/03/26 11:59:03;;;;;;;;;;;21.30;80.50;;;;;;4938008;28;20389;-78
2022/03/26 12:01:37;;;;;;;;;;;21.00;78.60;;;;;;4949340;28;19926;-79
2022/03/26 12:04:16;;;;;;;;;;;20.80;81.50;;;;;;4990336;28;20282;-76
2022/03/26 12:06:43;;;;;;;;;;;20.80;83.00;;;;;;4956783;28;19922;-77
2022/03/26 12:09:12;;;;;;;;;;;20.50;80.50;;;;;;4941641;28;19973;-78
2022/03/26 12:11:59;;;;;;;;;;;20.20;87.30;;;;;;4989595;28;19929;-77
2022/03/26 12:14:24;;;;;;;;;;;20.00;86.40;;;;;;4957246;28;19932;-78
2022/03/26 12:16:50;;;;;;;;;;;19.70;88.50;;;;;;4974457;28;20004;-78
2022/03/26 12:19:34;;;;;;;;;;;19.80;89.20;;;;;;4957017;28;19944;-78
2022/03/26 12:22:16;;;;;;;;;;;20.00;87.00;;;;;;4956726;28;19926;-78
2022/03/26 12:24:42;;;;;;;;;;;20.30;87.00;;;;;;4972629;28;19922;-78
2022/03/26 12:27:10;;;;;;;;;;;20.00;87.20;;;;;;4974383;28;19929;-78
2022/03/26 12:29:41;;;;;;;;;;;19.80;87.10;;;;;;4972659;28;19929;-77
2022/03/26 12:32:20;;;;;;;;;;;19.60;88.30;;;;;;4988403;28;19926;-78
2022/03/26 12:34:52;;;;;;;;;;;19.50;89.40;;;;;;4973810;28;20324;-78
2022/03/26 12:37:18;;;;;;;;;;;19.40;89.70;;;;;;4974440;28;20419;-78
2022/03/26 12:39:47;;;;;;;;;;;19.50;90.40;;;;;;4972912;28;19945;-79
2022/03/26 12:42:12;;;;;;;;;;;19.40;90.50;;;;;;4988815;28;20009;-78
2022/03/26 12:44:40;;;;;;;;;;;19.40;89.40;;;;;;4971173;28;19929;-78
2022/03/26 12:47:06;;;;;;;;;;;19.40;90.70;;;;;;4972861;28;20025;-78
2022/03/26 12:49:35;;;;;;;;;;;19.80;89.80;;;;;;4972239;28;19965;-78
2022/03/26 12:52:03;;;;;;;;;;;20.20;87.30;;;;;;4957317;28;19922;-78
2022/03/26 12:54:32;;;;;;;;;;;20.30;85.90;;;;;;4952236;28;20404;-77
2022/03/26 12:57:24;;;;;;;;;;;20.20;84.80;;;;;;4956440;28;19929;-77
2022/03/26 12:59:54;;;;;;;;;;;20.60;83.40;;;;;;4987763;28;19927;-78
2022/03/26 13:02:24;;;;;;;;;;;20.50;82.70;;;;;;4956616;28;19989;-79
2022/03/26 13:05:08;;;;;;;;;;;20.20;83.10;;;;;;4973892;28;20025;-79
2022/03/26 13:07:37;;;;;;;;;;;20.00;86.00;;;;;;4956729;28;20381;-79
2022/03/26 13:10:08;;;;;;;;;;;19.80;87.70;;;;;;4956180;28;19926;-77
2022/03/26 13:12:35;;;;;;;;;;;19.40;89.60;;;;;;4940335;28;20345;-78
2022/03/26 13:15:00;;;;;;;;;;;19.40;91.10;;;;;;4955919;28;20381;-78
2022/03/26 13:17:26;;;;;;;;;;;19.70;91.10;;;;;;4956393;28;19933;-78
2022/03/26 13:19:59;;;;;;;;;;;19.70;90.40;;;;;;4939888;28;19922;-78
2022/03/26 13:22:28;;;;;;;;;;;19.50;90.70;;;;;;4955971;28;19973;-78
2022/03/26 13:24:55;;;;;;;;;;;19.20;90.90;;;;;;4940718;28;19926;-78
2022/03/26 13:27:28;;;;;;;;;;;19.10;92.30;;;;;;4972606;28;20272;-77
2022/03/26 13:30:08;;;;;;;;;;;19.90;92.00;;;;;;4972050;28;20028;-77
2022/03/26 13:32:36;;;;;;;;;;;19.90;90.60;;;;;;4956078;28;19926;-78
2022/03/26 13:35:06;;;;;;;;;;;19.60;91.00;;;;;;4956421;28;19932;-78
2022/03/26 13:37:37;;;;;;;;;;;19.50;91.20;;;;;;4924777;28;19987;-78
2022/03/26 13:40:03;;;;;;;;;;;19.70;91.60;;;;;;4973675;28;19988;-78
2022/03/26 13:42:29;;;;;;;;;;;19.70;91.50;;;;;;4974866;28;20266;-79
2022/03/26 13:44:56;;;;;;;;;;;20.20;90.20;;;;;;4957115;28;20345;-79
2022/03/26 13:47:30;;;;;;;;;;;20.20;90.20;;;;;;4956572;28;19928;-79
2022/03/26 13:50:05;;;;;;;;;;;20.30;89.10;;;;;;4940839;28;19926;-78
2022/03/26 13:52:34;;;;;;;;;;;20.30;87.20;;;;;;4933440;29;20525;-78
2022/03/26 13:55:00;;;;;;;;;;;20.80;85.70;;;;;;4932972;28;19933;-78
2022/03/26 13:57:30;;;;;;;;;;;20.50;84.70;;;;;;4932847;29;19922;-78
2022/03/26 13:59:56;;;;;;;;;;;20.30;85.00;;;;;;4932960;29;19946;-78
2022/03/26 14:02:27;;;;;;;;;;;19.70;89.30;;;;;;4918006;29;20411;-78
2022/03/26 14:04:54;;;;;;;;;;;19.40;90.70;;;;;;4885676;29;19931;-78
2022/03/26 14:07:20;;;;;;;;;;;19.40;90.80;;;;;;4901402;29;20287;-78
2022/03/26 14:09:53;;;;;;;;;;;19.40;91.30;;;;;;4917433;29;20424;-78
2022/03/26 14:12:19;;;;;;;;;;;19.10;92.10;;;;;;4917529;29;19978;-79
2022/03/26 14:14:48;;;;;;;;;;;19.00;92.20;;;;;;4901280;29;19931;-79
2022/03/26 14:17:17;;;;;;;;;;;18.80;92.10;;;;;;4886069;29;20331;-77
2022/03/26 14:19:46;;;;;;;;;;;18.60;93.00;;;;;;4885533;29;20026;-78
2022/03/26 14:22:13;;;;;;;;;;;18.50;93.20;;;;;;4885691;29;19923;-79
2022/03/26 14:24:39;;;;;;;;;;;18.20;94.00;;;;;;4959125;28;20456;-78
2022/03/26 14:27:05;;;;;;;;;;;18.40;93.70;;;;;;4991668;28;19977;-78
2022/03/26 14:29:30;;;;;;;;;;;18.30;94.20;;;;;;4943950;28;20000;-79
2022/03/26 14:31:59;;;;;;;;;;;18.30;93.90;;;;;;4959448;28;20314;-78
2022/03/26 14:34:26;;;;;;;;;;;18.60;93.50;;;;;;4957429;28;19926;-78
2022/03/26 14:36:52;;;;;;;;;;;18.80;93.40;;;;;;4958880;28;19922;-78
2022/03/26 14:39:21;;;;;;;;;;;18.60;93.00;;;;;;4975866;28;19932;-78
2022/03/26 14:41:48;;;;;;;;;;;18.30;93.60;;;;;;4973560;28;19922;-78